createdAt,value
2018-11-21T00:00:34.654Z,29.70
2018-11-21T00:03:03.896Z,22.97
2018-11-21T00:05:33.140Z,23.83
2018-11-21T00:08:02.662Z,27.10
2018-11-21T00:10:31.959Z,24.07
2018-11-21T00:13:01.259Z,23.87
2018-11-21T00:15:30.686Z,23.70
2018-11-21T00:18:00.090Z,21.37
2018-11-21T00:20:29.310Z,26.23
2018-11-21T00:23:01.640Z,23.90
2018-11-21T00:25:30.879Z,27.50
2018-11-21T00:28:00.104Z,25.30
2018-11-21T00:30:29.532Z,22.90
2018-11-21T00:32:58.831Z,29.67
2018-11-21T00:35:28.064Z,25.77
2018-11-21T00:37:57.403Z,25.97
2018-11-21T00:40:26.658Z,22.03
2018-11-21T00:42:55.933Z,27.23
2018-11-21T00:45:27.921Z,19.47
2018-11-21T00:47:57.229Z,28.07
2018-11-21T00:50:26.497Z,26.40
2018-11-21T00:52:56.021Z,27.53
2018-11-21T00:55:25.244Z,21.93
2018-11-21T00:57:54.604Z,21.03
2018-11-21T01:00:24.124Z,24.20
2018-11-21T01:02:53.416Z,27.70
2018-11-21T01:05:22.675Z,26.10
2018-11-21T01:07:51.996Z,22.80
2018-11-21T01:10:21.230Z,23.07
2018-11-21T01:12:50.605Z,24.67
2018-11-21T01:15:19.824Z,25.60
2018-11-21T01:17:49.045Z,25.90
2018-11-21T01:20:18.377Z,25.73
2018-11-21T01:22:50.523Z,24.07
2018-11-21T01:25:16.886Z,27.50
2018-11-21T01:27:46.232Z,22.27
2018-11-21T01:30:15.451Z,25.17
2018-11-21T01:32:44.675Z,26.40
2018-11-21T01:35:13.986Z,27.00
2018-11-21T01:37:43.257Z,25.97
2018-11-21T01:40:12.701Z,26.63
2018-11-21T01:42:41.934Z,27.13
2018-11-21T01:45:11.219Z,27.17
2018-11-21T01:47:40.589Z,20.17
2018-11-21T01:50:10.207Z,22.90
2018-11-21T01:52:39.737Z,20.70
2018-11-21T01:55:08.987Z,24.07
2018-11-21T01:57:38.314Z,27.00
2018-11-21T02:00:09.850Z,27.97
2018-11-21T02:02:39.233Z,23.60
2018-11-21T02:05:08.655Z,32.10
2018-11-21T02:07:38.082Z,29.13
2018-11-21T02:10:08.062Z,29.67
2018-11-21T02:12:37.397Z,26.40
2018-11-21T02:15:06.908Z,27.37
2018-11-21T02:17:36.295Z,22.37
2018-11-21T02:20:07.073Z,22.93
2018-11-21T02:22:36.386Z,27.80
2018-11-21T02:25:06.678Z,29.03
2018-11-21T02:27:36.157Z,31.20
2018-11-21T02:30:06.305Z,28.70
2018-11-21T02:32:35.585Z,31.47
2018-11-21T02:35:05.772Z,25.43
2018-11-21T02:37:35.475Z,25.50
2018-11-21T02:40:04.917Z,29.80
2018-11-21T02:42:34.218Z,20.80
2018-11-21T02:45:03.599Z,26.60
2018-11-21T02:47:32.864Z,28.93
2018-11-21T02:50:02.143Z,27.90
2018-11-21T02:52:31.634Z,21.70
2018-11-21T02:55:00.860Z,27.33
2018-11-21T02:57:31.430Z,18.30
2018-11-21T03:00:09.522Z,28.50
2018-11-21T03:02:38.770Z,24.30
2018-11-21T03:05:08.032Z,23.83
2018-11-21T03:07:37.300Z,30.50
2018-11-21T03:10:07.051Z,27.40
2018-11-21T03:12:36.471Z,24.97
2018-11-21T03:15:05.959Z,26.13
2018-11-21T03:17:35.287Z,25.00
2018-11-21T03:20:04.685Z,22.00
2018-11-21T03:22:33.910Z,30.10
2018-11-21T03:25:03.144Z,20.73
2018-11-21T03:27:32.571Z,29.07
2018-11-21T03:30:01.874Z,16.00
2018-11-21T03:32:31.269Z,28.20
2018-11-21T03:35:00.728Z,24.07
2018-11-21T03:37:32.835Z,21.80
2018-11-21T03:40:02.156Z,24.83
2018-11-21T03:42:31.670Z,24.97
2018-11-21T03:45:01.009Z,23.20
2018-11-21T03:47:30.445Z,22.07
2018-11-21T03:49:59.810Z,24.43
2018-11-21T03:52:29.076Z,28.47
2018-11-21T03:54:58.563Z,26.60
2018-11-21T03:57:27.798Z,26.27
2018-11-21T03:59:57.043Z,26.27
2018-11-21T04:02:26.466Z,26.70
2018-11-21T04:04:55.782Z,27.23
2018-11-21T04:07:25.020Z,26.93
2018-11-21T04:09:54.467Z,25.97
2018-11-21T04:12:23.800Z,23.30
2018-11-21T04:14:53.067Z,28.93
2018-11-21T04:17:22.469Z,27.10
2018-11-21T04:19:51.798Z,26.37
2018-11-21T04:22:21.036Z,27.27
2018-11-21T04:24:50.475Z,30.43
2018-11-21T04:27:19.696Z,25.30
2018-11-21T04:29:48.961Z,23.23
2018-11-21T04:32:18.306Z,24.87
2018-11-21T04:34:47.549Z,27.00
2018-11-21T04:37:16.836Z,28.40
2018-11-21T04:39:46.397Z,27.83
2018-11-21T04:42:15.630Z,28.30
2018-11-21T04:44:44.868Z,27.30
2018-11-21T04:47:14.502Z,31.10
2018-11-21T04:49:43.890Z,27.03
2018-11-21T04:52:13.186Z,28.73
2018-11-21T04:54:42.595Z,32.53
2018-11-21T04:57:11.836Z,28.90
2018-11-21T04:59:41.183Z,27.80
2018-11-21T05:02:10.593Z,26.13
2018-11-21T05:04:39.830Z,30.50
2018-11-21T05:07:09.049Z,28.50
2018-11-21T05:09:38.589Z,27.37
2018-11-21T05:12:07.853Z,25.60
2018-11-21T05:14:37.115Z,31.10
2018-11-21T05:17:06.549Z,25.83
2018-11-21T05:19:35.798Z,20.80
2018-11-21T05:22:05.190Z,21.70
2018-11-21T05:24:34.462Z,27.10
2018-11-21T05:27:03.699Z,29.33
2018-11-21T05:29:33.078Z,22.53
2018-11-21T05:32:02.538Z,24.80
2018-11-21T05:34:31.895Z,20.77
2018-11-21T05:37:01.320Z,20.43
2018-11-21T05:39:30.706Z,26.53
2018-11-21T05:41:59.961Z,23.53
2018-11-21T05:44:31.537Z,19.53
2018-11-21T05:46:59.094Z,27.20
2018-11-21T05:49:28.337Z,27.73
2018-11-21T05:51:57.984Z,22.30
2018-11-21T05:54:27.195Z,26.03
2018-11-21T05:56:56.436Z,24.10
2018-11-21T05:59:25.825Z,24.23
2018-11-21T06:01:55.115Z,25.97
2018-11-21T06:04:24.343Z,23.27
2018-11-21T06:06:53.727Z,21.70
2018-11-21T06:09:22.985Z,26.07
2018-11-21T06:11:52.310Z,23.70
2018-11-21T06:14:21.833Z,19.07
2018-11-21T06:16:51.091Z,20.50
2018-11-21T06:19:20.478Z,22.53
2018-11-21T06:21:49.838Z,30.07
2018-11-21T06:24:19.223Z,20.57
2018-11-21T06:26:58.688Z,26.73
2018-11-21T06:29:28.054Z,25.27
2018-11-21T06:31:59.947Z,16.87
2018-11-21T06:34:32.731Z,24.00
2018-11-21T06:36:57.412Z,23.50
2018-11-21T06:39:26.923Z,26.50
2018-11-21T06:41:57.357Z,25.57
2018-11-21T06:44:26.683Z,28.30
2018-11-21T06:46:56.074Z,18.13
2018-11-21T06:49:25.426Z,24.23
2018-11-21T06:51:55.196Z,27.70
2018-11-21T06:54:24.469Z,18.37
2018-11-21T06:56:53.734Z,23.53
2018-11-21T06:59:23.093Z,25.70
2018-11-21T07:01:52.456Z,23.27
2018-11-21T07:04:24.542Z,26.97
2018-11-21T07:06:53.771Z,27.37
2018-11-21T07:09:23.138Z,27.90
2018-11-21T07:11:52.629Z,23.93
2018-11-21T07:14:21.882Z,27.43
2018-11-21T07:16:51.214Z,26.30
2018-11-21T07:19:20.740Z,24.83
2018-11-21T07:21:49.987Z,25.90
2018-11-21T07:24:19.244Z,18.90
2018-11-21T07:26:48.754Z,20.83
2018-11-21T07:29:18.028Z,32.70
2018-11-21T07:31:47.412Z,26.20
2018-11-21T07:34:16.886Z,24.50
2018-11-21T07:36:48.999Z,20.57
2018-11-21T07:39:18.253Z,24.90
2018-11-21T07:41:47.709Z,26.47
2018-11-21T07:44:16.974Z,23.57
2018-11-21T07:46:46.242Z,16.03
2018-11-21T07:49:15.717Z,31.80
2018-11-21T07:51:44.967Z,26.10
2018-11-21T07:54:14.225Z,26.30
2018-11-21T07:57:29.388Z,27.37
2018-11-21T08:01:04.942Z,28.87
2018-11-21T08:03:54.007Z,22.17
2018-11-21T08:06:50.937Z,18.40
2018-11-21T08:09:48.547Z,22.90
2018-11-21T08:12:36.915Z,23.40
2018-11-21T08:15:29.390Z,26.33
2018-11-21T08:18:33.010Z,25.10
2018-11-21T08:21:30.734Z,24.53
2018-11-21T08:24:08.443Z,21.50
2018-11-21T08:27:12.032Z,25.60
2018-11-21T08:29:41.271Z,23.53
2018-11-21T08:32:10.551Z,25.70
2018-11-21T08:34:39.878Z,25.37
2018-11-21T08:37:09.652Z,25.77
2018-11-21T08:39:39.185Z,23.17
2018-11-21T08:42:08.468Z,21.97
2018-11-21T08:44:37.799Z,24.47
2018-11-21T08:47:07.203Z,25.63
2018-11-21T08:49:36.483Z,21.43
2018-11-21T08:52:06.251Z,25.33
2018-11-21T08:54:35.832Z,25.10
2018-11-21T08:57:05.561Z,23.30
2018-11-21T08:59:35.020Z,24.00
2018-11-21T09:02:04.483Z,25.53
2018-11-21T09:04:33.773Z,22.80
2018-11-21T09:07:03.299Z,23.77
2018-11-21T09:09:32.751Z,24.97
2018-11-21T09:12:01.976Z,26.40
2018-11-21T09:14:31.212Z,20.30
2018-11-21T09:17:00.657Z,24.60
2018-11-21T09:19:29.987Z,22.23
2018-11-21T09:21:59.345Z,22.80
2018-11-21T09:24:28.856Z,22.20
2018-11-21T09:26:58.177Z,24.30
2018-11-21T09:29:27.394Z,19.90
2018-11-21T09:31:59.620Z,22.70
2018-11-21T09:34:28.879Z,21.27
2018-11-21T09:36:58.146Z,22.37
2018-11-21T09:39:27.392Z,20.60
2018-11-21T09:41:56.654Z,23.00
2018-11-21T09:44:26.335Z,22.30
2018-11-21T09:46:55.602Z,22.17
2018-11-21T09:49:24.992Z,23.40
2018-11-21T09:51:54.649Z,24.37
2018-11-21T09:54:23.916Z,27.23
2018-11-21T09:56:53.175Z,22.70
2018-11-21T09:59:23.138Z,23.17
2018-11-21T10:02:28.709Z,17.90
2018-11-21T10:04:58.107Z,25.77
2018-11-21T10:07:27.580Z,22.10
2018-11-21T10:09:59.644Z,23.20
2018-11-21T10:12:29.409Z,22.30
2018-11-21T10:14:58.742Z,18.50
2018-11-21T10:17:28.058Z,18.67
2018-11-21T10:19:57.716Z,20.30
2018-11-21T10:22:27.043Z,20.07
2018-11-21T10:24:59.084Z,21.70
2018-11-21T10:27:29.975Z,20.97
2018-11-21T10:29:59.448Z,18.30
2018-11-21T10:32:28.940Z,21.00
2018-11-21T10:34:58.311Z,21.80
2018-11-21T10:37:27.561Z,22.93
2018-11-21T10:39:57.074Z,15.83
2018-11-21T10:42:26.346Z,21.40
2018-11-21T10:44:55.700Z,21.27
2018-11-21T10:47:25.206Z,28.10
2018-11-21T10:49:54.823Z,19.47
2018-11-21T10:52:24.099Z,22.10
2018-11-21T10:54:53.593Z,18.33
2018-11-21T10:57:22.863Z,21.27
2018-11-21T10:59:52.139Z,21.80
2018-11-21T11:02:39.297Z,23.17
2018-11-21T11:05:23.563Z,17.63
2018-11-21T11:08:27.504Z,19.87
2018-11-21T11:11:24.862Z,19.97
2018-11-21T11:14:11.779Z,19.17
2018-11-21T11:17:00.248Z,16.87
2018-11-21T11:19:57.548Z,13.70
2018-11-21T11:22:48.491Z,19.70
2018-11-21T11:25:35.912Z,20.00
2018-11-21T11:28:24.479Z,19.30
2018-11-21T11:31:12.509Z,18.50
2018-11-21T11:34:02.214Z,18.17
2018-11-21T11:36:49.835Z,19.87
2018-11-21T11:39:44.093Z,20.00
2018-11-21T11:42:32.771Z,19.13
2018-11-21T11:45:24.077Z,15.47
2018-11-21T11:48:15.629Z,18.20
2018-11-21T11:51:04.643Z,21.17
2018-11-21T11:54:02.156Z,18.90
2018-11-21T11:56:54.890Z,14.83
2018-11-21T11:59:47.248Z,20.37
2018-11-21T12:02:38.742Z,23.00
2018-11-21T12:05:26.673Z,20.60
2018-11-21T12:08:14.100Z,21.10
2018-11-21T12:11:01.199Z,19.80
2018-11-21T12:13:58.716Z,19.93
2018-11-21T12:16:56.340Z,17.70
2018-11-21T12:19:41.287Z,21.23
2018-11-21T12:22:28.437Z,14.90
2018-11-21T12:25:15.985Z,19.83
2018-11-21T12:28:04.786Z,21.73
2018-11-21T12:31:14.661Z,20.57
2018-11-21T12:34:18.144Z,19.90
2018-11-21T12:37:09.156Z,22.70
2018-11-21T12:39:56.600Z,18.90
2018-11-21T12:42:43.689Z,19.77
2018-11-21T12:45:31.042Z,19.83
2018-11-21T12:48:25.659Z,16.43
2018-11-21T12:51:23.106Z,22.13
2018-11-21T12:54:10.196Z,20.67
2018-11-21T12:57:08.981Z,24.70
2018-11-21T13:00:00.218Z,20.73
2018-11-21T13:03:00.707Z,21.00
2018-11-21T13:05:47.531Z,21.70
2018-11-21T13:08:36.110Z,22.80
2018-11-21T13:11:23.206Z,24.20
2018-11-21T13:14:09.463Z,19.13
2018-11-21T13:16:56.623Z,21.80
2018-11-21T13:19:51.331Z,20.73
2018-11-21T13:22:37.808Z,22.90
2018-11-21T13:25:24.878Z,21.93
2018-11-21T13:28:11.866Z,20.93
2018-11-21T13:31:09.661Z,20.33
2018-11-21T13:33:58.277Z,23.00
2018-11-21T13:36:49.804Z,17.67
2018-11-21T13:39:31.162Z,11.77
2018-11-21T13:42:24.525Z,20.63
2018-11-21T13:45:32.448Z,21.97
2018-11-21T13:48:20.612Z,19.17
2018-11-21T13:51:21.150Z,22.40
2018-11-21T13:54:08.599Z,21.83
2018-11-21T13:56:37.839Z,21.00
2018-11-21T13:59:07.300Z,21.40
2018-11-21T14:01:36.780Z,19.80
2018-11-21T14:04:06.079Z,21.67
2018-11-21T14:06:35.513Z,20.40
2018-11-21T14:09:08.341Z,18.63
2018-11-21T14:11:37.804Z,20.80
2018-11-21T14:14:07.542Z,21.70
2018-11-21T14:16:39.968Z,19.13
2018-11-21T14:19:09.206Z,20.50
2018-11-21T14:21:38.666Z,19.37
2018-11-21T14:24:10.531Z,18.00
2018-11-21T14:26:37.934Z,19.50
2018-11-21T14:29:07.434Z,21.00
2018-11-21T14:31:39.935Z,20.00
2018-11-21T14:34:10.917Z,18.03
2018-11-21T14:36:38.555Z,18.37
2018-11-21T14:39:12.767Z,15.17
2018-11-21T14:41:43.057Z,17.00
2018-11-21T14:44:12.374Z,16.00
2018-11-21T14:46:43.169Z,18.00
2018-11-21T14:49:12.668Z,18.20
2018-11-21T14:51:41.941Z,18.60
2018-11-21T14:54:11.581Z,16.90
2018-11-21T14:56:40.930Z,15.00
2018-11-21T14:59:10.408Z,17.43
2018-11-21T15:01:39.845Z,15.63
2018-11-21T15:04:09.339Z,19.17
2018-11-21T15:06:58.066Z,21.00
2018-11-21T15:09:30.230Z,17.83
2018-11-21T15:11:59.481Z,18.93
2018-11-21T15:14:28.986Z,20.30
2018-11-21T15:16:58.399Z,18.43
2018-11-21T15:19:27.674Z,20.83
2018-11-21T15:21:57.304Z,18.57
2018-11-21T15:24:26.707Z,22.40
2018-11-21T15:26:55.996Z,24.10
2018-11-21T15:29:28.392Z,24.47
2018-11-21T15:31:57.981Z,21.13
2018-11-21T15:34:30.176Z,21.37
2018-11-21T15:36:59.834Z,25.57
2018-11-21T15:39:29.163Z,22.50
2018-11-21T15:41:58.429Z,24.47
2018-11-21T15:44:27.957Z,22.73
2018-11-21T15:46:57.390Z,19.97
2018-11-21T15:49:26.739Z,22.67
2018-11-21T15:52:01.335Z,23.10
2018-11-21T15:54:25.666Z,20.37
2018-11-21T15:56:55.054Z,22.07
2018-11-21T15:59:24.457Z,14.57
2018-11-21T16:01:53.848Z,25.27
2018-11-21T16:04:23.112Z,25.13
2018-11-21T16:06:52.577Z,23.90
2018-11-21T16:09:21.831Z,27.50
2018-11-21T16:11:51.134Z,25.20
2018-11-21T16:14:20.581Z,21.33
2018-11-21T16:16:49.874Z,24.27
2018-11-21T16:19:19.124Z,30.30
2018-11-21T16:21:48.670Z,31.60
2018-11-21T16:24:18.070Z,26.47
2018-11-21T16:26:47.325Z,27.70
2018-11-21T16:29:17.026Z,20.33
2018-11-21T16:31:46.393Z,25.93
2018-11-21T16:34:15.824Z,30.10
2018-11-21T16:36:45.392Z,26.57
2018-11-21T16:39:14.665Z,29.43
2018-11-21T16:41:43.944Z,34.03
2018-11-21T16:44:13.503Z,31.37
2018-11-21T16:46:42.750Z,29.90
2018-11-21T16:49:12.075Z,30.27
2018-11-21T16:51:41.513Z,26.20
2018-11-21T16:54:10.935Z,36.73
2018-11-21T16:56:40.183Z,29.30
2018-11-21T16:59:12.190Z,31.77
2018-11-21T17:01:43.709Z,31.00
2018-11-21T17:04:12.964Z,30.37
2018-11-21T17:06:42.413Z,34.10
2018-11-21T17:09:13.029Z,26.60
2018-11-21T17:11:42.367Z,34.97
2018-11-21T17:14:11.960Z,31.07
2018-11-21T17:16:41.212Z,31.07
2018-11-21T17:19:10.439Z,25.50
2018-11-21T17:21:39.708Z,38.43
2018-11-21T17:24:11.068Z,34.30
2018-11-21T17:26:40.511Z,37.93
2018-11-21T17:29:09.766Z,34.30
2018-11-21T17:31:39.194Z,31.97
2018-11-21T17:34:08.494Z,33.10
2018-11-21T17:36:37.738Z,32.90
2018-11-21T17:39:10.442Z,33.60
2018-11-21T17:41:39.808Z,36.80
2018-11-21T17:44:09.034Z,32.47
2018-11-21T17:46:38.304Z,35.87
2018-11-21T17:49:07.986Z,33.37
2018-11-21T17:51:37.495Z,34.20
2018-11-21T17:54:07.102Z,31.20
2018-11-21T17:56:36.447Z,40.70
2018-11-21T17:59:05.920Z,38.53
2018-11-21T18:01:37.420Z,34.17
2018-11-21T18:04:06.752Z,35.67
2018-11-21T18:06:38.835Z,37.23
2018-11-21T18:09:10.890Z,31.80
2018-11-21T18:11:40.383Z,32.37
2018-11-21T18:14:09.924Z,42.40
2018-11-21T18:16:39.154Z,36.97
2018-11-21T18:19:08.378Z,36.70
2018-11-21T18:21:37.803Z,40.43
2018-11-21T18:24:07.111Z,38.60
2018-11-21T18:26:39.374Z,40.00
2018-11-21T18:29:11.707Z,41.67
2018-11-21T18:31:38.037Z,41.93
2018-11-21T18:34:07.372Z,38.47
2018-11-21T18:36:36.771Z,30.93
2018-11-21T18:39:09.286Z,29.73
2018-11-21T18:41:40.375Z,34.37
2018-11-21T18:44:08.352Z,36.87
2018-11-21T18:46:37.659Z,39.07
2018-11-21T18:49:07.175Z,33.00
2018-11-21T18:51:36.479Z,38.40
2018-11-21T18:54:05.798Z,36.57
2018-11-21T18:57:02.329Z,35.47
2018-11-21T18:59:41.260Z,30.97
2018-11-21T19:02:10.632Z,37.00
2018-11-21T19:04:39.945Z,33.00
2018-11-21T19:07:09.189Z,39.97
2018-11-21T19:09:38.645Z,34.10
2018-11-21T19:12:07.902Z,38.90
2018-11-21T19:14:37.362Z,34.40
2018-11-21T19:17:07.263Z,33.73
2018-11-21T19:19:36.555Z,26.47
2018-11-21T19:22:05.948Z,35.73
2018-11-21T19:24:35.458Z,32.53
2018-11-21T19:27:04.811Z,34.97
2018-11-21T19:29:34.040Z,33.30
2018-11-21T19:32:03.464Z,35.87
2018-11-21T19:34:32.721Z,32.47
2018-11-21T19:37:04.299Z,39.90
2018-11-21T19:39:33.852Z,33.33
2018-11-21T19:42:03.113Z,33.23
2018-11-21T19:44:32.354Z,32.27
2018-11-21T19:47:01.752Z,38.67
2018-11-21T19:49:33.460Z,37.80
2018-11-21T19:52:00.283Z,37.57
2018-11-21T19:54:29.944Z,34.10
2018-11-21T19:56:59.178Z,31.13
2018-11-21T19:59:28.438Z,35.20
2018-11-21T20:01:57.787Z,34.90
2018-11-21T20:04:27.186Z,36.50
2018-11-21T20:06:56.581Z,60.83
2018-11-21T20:09:25.954Z,30.20
2018-11-21T20:11:55.197Z,36.80
2018-11-21T20:14:24.495Z,32.70
2018-11-21T20:16:53.848Z,30.17
2018-11-21T20:19:23.595Z,38.07
2018-11-21T20:21:52.824Z,40.03
2018-11-21T20:24:22.256Z,36.53
2018-11-21T20:26:51.482Z,33.67
2018-11-21T20:29:20.767Z,32.07
2018-11-21T20:31:50.155Z,35.57
2018-11-21T20:34:19.384Z,41.10
2018-11-21T20:36:48.631Z,36.50
2018-11-21T20:39:18.163Z,33.83
2018-11-21T20:41:47.406Z,29.67
2018-11-21T20:44:17.693Z,34.93
2018-11-21T20:46:47.188Z,36.20
2018-11-21T20:49:16.502Z,28.67
2018-11-21T20:51:45.760Z,38.80
2018-11-21T20:54:18.021Z,31.93
2018-11-21T20:56:44.587Z,34.10
2018-11-21T20:59:13.804Z,30.63
2018-11-21T21:01:43.194Z,28.80
2018-11-21T21:04:12.433Z,34.33
2018-11-21T21:06:41.795Z,65.10
2018-11-21T21:09:13.765Z,28.43
2018-11-21T21:11:43.008Z,33.97
2018-11-21T21:14:14.123Z,31.37
2018-11-21T21:16:41.665Z,35.60
2018-11-21T21:19:11.013Z,31.63
2018-11-21T21:21:40.235Z,26.70
2018-11-21T21:24:09.765Z,30.07
2018-11-21T21:26:39.064Z,32.20
2018-11-21T21:29:08.401Z,32.73
2018-11-21T21:31:40.733Z,29.17
2018-11-21T21:34:10.025Z,31.00
2018-11-21T21:36:39.283Z,33.60
2018-11-21T21:39:10.575Z,29.90
2018-11-21T21:41:39.830Z,31.07
2018-11-21T21:44:09.194Z,28.70
2018-11-21T21:46:38.578Z,31.80
2018-11-21T21:49:07.841Z,34.23
2018-11-21T21:51:37.401Z,30.30
2018-11-21T21:54:06.784Z,28.53
2018-11-21T21:56:36.005Z,17.30
2018-11-21T21:59:05.554Z,34.87
2018-11-21T22:01:35.410Z,32.67
2018-11-21T22:04:04.971Z,35.00
2018-11-21T22:06:34.314Z,31.93
2018-11-21T22:09:08.187Z,24.47
2018-11-21T22:11:37.527Z,28.33
2018-11-21T22:14:06.922Z,34.83
2018-11-21T22:16:36.643Z,28.23
2018-11-21T22:19:05.918Z,34.90
2018-11-21T22:21:35.135Z,30.43
2018-11-21T22:24:08.840Z,31.80
2018-11-21T22:26:38.110Z,30.53
2018-11-21T22:29:07.437Z,29.80
2018-11-21T22:31:36.857Z,31.27
2018-11-21T22:34:06.462Z,30.83
2018-11-21T22:36:35.800Z,32.00
2018-11-21T22:39:08.692Z,31.03
2018-11-21T22:41:37.929Z,33.60
2018-11-21T22:44:07.151Z,40.80
2018-11-21T22:46:36.548Z,25.17
2018-11-21T22:49:05.899Z,32.13
2018-11-21T22:51:35.217Z,35.20
2018-11-21T22:54:04.853Z,28.30
2018-11-21T22:56:34.075Z,36.03
2018-11-21T22:59:03.383Z,34.00
2018-11-21T23:01:34.398Z,32.37
2018-11-21T23:04:03.623Z,33.37
2018-11-21T23:06:32.860Z,35.10
2018-11-21T23:09:02.395Z,33.10
2018-11-21T23:11:31.592Z,32.07
2018-11-21T23:14:00.838Z,35.37
2018-11-21T23:16:30.351Z,31.37
2018-11-21T23:18:59.660Z,34.07
2018-11-21T23:21:28.898Z,32.30
2018-11-21T23:23:58.283Z,27.50
2018-11-21T23:26:27.953Z,30.47
2018-11-21T23:28:57.184Z,32.30
2018-11-21T23:31:26.606Z,33.27
2018-11-21T23:33:55.880Z,29.23
2018-11-21T23:36:25.141Z,26.83
2018-11-21T23:38:54.599Z,35.30
2018-11-21T23:41:23.821Z,27.50
2018-11-21T23:43:53.195Z,33.37
2018-11-21T23:46:22.443Z,32.50
2018-11-21T23:48:51.761Z,28.93
2018-11-21T23:51:23.789Z,29.83
2018-11-21T23:53:53.175Z,34.50
2018-11-21T23:56:22.399Z,30.50
2018-11-21T23:58:51.643Z,32.93
